Time;durP1;ratioP1;P1;durP2;ratioP2;P2;SDS_P1;SDS_P2;PMS_P1;PMS_P2;Temp;Humidity;BMP_temperature;BMP_pressure;BME280_temperature;BME280_humidity;BME280_pressure;Samples;Min_cycle;Max_cycle;Signal;HPM_P1;HPM_P2
2021/04/15 00:00:24;;;;;;;0.47;0.47;;;3.90;99.90;;;;;;4989619;28;20654;-79
2021/04/15 00:02:50;;;;;;;0.40;0.40;;;3.80;99.90;;;;;;4972372;28;20279;-78
2021/04/15 00:05:23;;;;;;;0.00;0.00;;;3.70;99.90;;;;;;4991127;28;20668;-79
2021/04/15 00:07:48;;;;;;;0.40;0.23;;;3.70;99.90;;;;;;4974020;28;20544;-79
2021/04/15 00:10:15;;;;;;;0.03;0.03;;;3.40;99.90;;;;;;4975972;28;20189;-79
2021/04/15 00:12:41;;;;;;;0.10;0.10;;;3.40;99.90;;;;;;4974114;28;20240;-78
2021/04/15 00:15:10;;;;;;;0.10;0.10;;;3.50;99.90;;;;;;4973779;28;20616;-78
2021/04/15 00:17:36;;;;;;;0.10;0.10;;;3.60;99.90;;;;;;4972404;28;20199;-79
2021/04/15 00:20:01;;;;;;;0.10;0.10;;;3.60;99.90;;;;;;4989602;28;20222;-79
2021/04/15 00:22:27;;;;;;;0.10;0.10;;;3.60;99.90;;;;;;4973410;28;20321;-79
2021/04/15 00:24:52;;;;;;;0.07;0.07;;;3.60;99.90;;;;;;4977297;28;20187;-79
2021/04/15 00:27:19;;;;;;;0.20;0.10;;;3.50;99.90;;;;;;4979083;28;20186;-79
2021/04/15 00:29:45;;;;;;;0.30;0.20;;;3.50;99.90;;;;;;4995995;28;20246;-79
2021/04/15 00:32:10;;;;;;;0.03;0.03;;;3.40;99.90;;;;;;4977548;28;20299;-79
2021/04/15 00:34:36;;;;;;;0.10;0.10;;;3.40;99.90;;;;;;4993792;28;20276;-79
2021/04/15 00:37:02;;;;;;;0.10;0.10;;;3.40;99.90;;;;;;4976971;28;20731;-79
2021/04/15 00:39:27;;;;;;;0.70;0.70;;;3.40;99.90;;;;;;4977201;28;20670;-79
2021/04/15 00:41:53;;;;;;;8.60;0.40;;;3.40;99.90;;;;;;4972099;28;20182;-79
2021/04/15 00:44:18;;;;;;;0.20;0.20;;;3.40;99.90;;;;;;4992357;28;20183;-79
2021/04/15 00:46:59;;;;;;;0.10;0.10;;;3.20;99.90;;;;;;4993151;28;20573;-79
2021/04/15 00:49:32;;;;;;;0.20;0.20;;;3.20;99.90;;;;;;4975370;28;20191;-79
2021/04/15 00:52:07;;;;;;;0.10;0.10;;;3.10;99.90;;;;;;4993309;28;20193;-79
2021/04/15 00:54:44;;;;;;;0.10;0.10;;;3.10;99.90;;;;;;4977130;28;20190;-79
2021/04/15 00:57:25;;;;;;;0.17;0.17;;;3.10;99.90;;;;;;4977254;28;20182;-78
2021/04/15 00:59:50;;;;;;;0.10;0.10;;;3.00;99.90;;;;;;4994508;28;20246;-79
2021/04/15 01:02:20;;;;;;;0.17;0.17;;;3.00;99.90;;;;;;4994100;28;20736;-78
2021/04/15 01:04:47;;;;;;;0.10;0.10;;;3.00;99.90;;;;;;4977250;28;20188;-79
2021/04/15 01:07:13;;;;;;;0.10;0.10;;;3.10;99.90;;;;;;4972899;28;20198;-79
2021/04/15 01:09:39;;;;;;;0.30;0.30;;;3.20;99.90;;;;;;4976175;28;20190;-79
2021/04/15 01:12:13;;;;;;;0.10;0.10;;;2.90;99.90;;;;;;4985407;28;20208;-79
2021/04/15 01:15:15;;;;;;;0.10;0.10;;;2.90;99.90;;;;;;4993070;28;20182;-79
2021/04/15 01:17:55;;;;;;;0.20;0.20;;;2.80;99.90;;;;;;4992120;28;20187;-79
2021/04/15 01:20:56;;;;;;;0.20;0.20;;;2.70;99.90;;;;;;4973413;28;20290;-79
2021/04/15 01:23:30;;;;;;;0.20;0.20;;;2.60;99.90;;;;;;4991175;28;20206;-78
2021/04/15 01:26:23;;;;;;;0.10;0.10;;;2.70;99.90;;;;;;4987111;28;20216;-79
2021/04/15 01:29:14;;;;;;;0.10;0.10;;;2.70;99.90;;;;;;4977547;28;20189;-78
2021/04/15 01:32:01;;;;;;;0.10;0.10;;;2.80;99.90;;;;;;4988161;28;20189;-79
2021/04/15 01:34:33;;;;;;;0.10;0.10;;;2.90;99.90;;;;;;4974280;28;20187;-77
2021/04/15 01:37:04;;;;;;;0.10;0.10;;;2.90;99.90;;;;;;4970711;28;20191;-79
2021/04/15 01:39:42;;;;;;;0.00;0.00;;;3.00;99.90;;;;;;4975457;28;20679;-79
2021/04/15 01:42:16;;;;;;;1.13;0.20;;;3.00;99.90;;;;;;4985894;28;20206;-79
2021/04/15 01:44:48;;;;;;;0.07;0.07;;;3.00;99.90;;;;;;4987906;28;20188;-79
2021/04/15 01:47:20;;;;;;;0.07;0.07;;;3.00;99.90;;;;;;4972232;28;20186;-78
2021/04/15 01:49:51;;;;;;;0.10;0.10;;;3.00;99.90;;;;;;4976688;28;20197;-78
2021/04/15 01:52:17;;;;;;;0.33;0.33;;;3.00;99.90;;;;;;4966416;28;20569;-79
2021/04/15 01:55:00;;;;;;;0.00;0.00;;;3.00;99.90;;;;;;4971638;28;20285;-79
2021/04/15 01:57:33;;;;;;;0.20;0.20;;;3.10;99.90;;;;;;4975313;28;20194;-79
2021/04/15 02:00:10;;;;;;;0.10;0.10;;;3.10;99.90;;;;;;4975534;28;20218;-79
2021/04/15 02:02:49;;;;;;;0.43;0.33;;;3.00;99.90;;;;;;4974262;28;20221;-79
2021/04/15 02:05:21;;;;;;;0.10;0.10;;;2.90;99.90;;;;;;4975560;28;20186;-79
2021/04/15 02:07:58;;;;;;;0.10;0.10;;;3.10;99.90;;;;;;4975112;28;20596;-79
2021/04/15 02:10:26;;;;;;;0.20;0.20;;;3.20;99.90;;;;;;4976825;28;20244;-79
2021/04/15 02:12:54;;;;;;;0.10;0.10;;;3.10;99.90;;;;;;4976788;28;20279;-79
2021/04/15 02:15:25;;;;;;;0.00;0.00;;;3.20;99.90;;;;;;4975228;28;20189;-79
2021/04/15 02:17:54;;;;;;;0.20;0.20;;;3.10;99.90;;;;;;4974321;28;20237;-79
2021/04/15 02:20:23;;;;;;;0.00;0.00;;;3.10;99.90;;;;;;4975588;28;20651;-79
2021/04/15 02:22:56;;;;;;;0.20;0.20;;;3.00;99.90;;;;;;4972076;28;20237;-79
2021/04/15 02:25:28;;;;;;;0.23;0.13;;;2.90;99.90;;;;;;4976110;28;20278;-79
2021/04/15 02:28:16;;;;;;;0.07;0.07;;;2.90;99.90;;;;;;4984921;28;20193;-79
2021/04/15 02:30:49;;;;;;;0.27;0.27;;;2.90;99.90;;;;;;4989224;28;20190;-79
2021/04/15 02:33:44;;;;;;;0.17;0.10;;;2.90;99.90;;;;;;4963474;28;20602;-79
2021/04/15 02:36:11;;;;;;;0.30;0.30;;;2.80;99.90;;;;;;4983778;28;20247;-79
2021/04/15 02:38:57;;;;;;;0.10;0.10;;;2.90;99.90;;;;;;4974807;28;20201;-79
2021/04/15 02:41:30;;;;;;;0.20;0.20;;;2.90;99.90;;;;;;4986866;28;20705;-79
2021/04/15 02:44:04;;;;;;;0.20;0.20;;;2.90;99.90;;;;;;4973991;28;20284;-79
2021/04/15 02:46:54;;;;;;;0.10;0.10;;;2.90;99.90;;;;;;4970960;28;20191;-79
2021/04/15 02:49:25;;;;;;;0.40;0.20;;;2.90;99.90;;;;;;4972056;28;20672;-79
2021/04/15 02:52:13;;;;;;;0.00;0.00;;;3.00;99.90;;;;;;4987950;28;20186;-78
2021/04/15 02:54:48;;;;;;;0.10;0.10;;;2.90;99.90;;;;;;4974229;28;20206;-79
2021/04/15 02:57:24;;;;;;;0.10;0.10;;;2.90;99.90;;;;;;4973603;28;20796;-78
2021/04/15 03:00:16;;;;;;;0.10;0.10;;;2.90;99.90;;;;;;4986661;28;20286;-79
2021/04/15 03:02:47;;;;;;;0.20;0.20;;;2.90;99.90;;;;;;4967438;28;20309;-79
2021/04/15 03:05:17;;;;;;;0.40;0.10;;;2.90;99.90;;;;;;4989334;28;20181;-79
2021/04/15 03:07:43;;;;;;;0.10;0.10;;;2.90;99.90;;;;;;4966420;28;20186;-79
2021/04/15 03:10:14;;;;;;;0.33;0.33;;;2.90;99.90;;;;;;4990299;28;20187;-77
2021/04/15 03:12:47;;;;;;;0.50;0.33;;;2.90;99.90;;;;;;4990398;28;20194;-79
2021/04/15 03:15:18;;;;;;;0.63;0.20;;;2.90;99.90;;;;;;4992052;28;20663;-79
2021/04/15 03:17:47;;;;;;;0.50;0.23;;;2.80;99.90;;;;;;4969353;28;20724;-79
2021/04/15 03:20:16;;;;;;;0.10;0.10;;;2.80;99.90;;;;;;4968318;28;20212;-79
2021/04/15 03:22:59;;;;;;;0.30;0.30;;;2.80;99.90;;;;;;4972968;28;20200;-79
2021/04/15 03:25:26;;;;;;;0.70;0.70;;;2.80;99.90;;;;;;4974464;28;20661;-79
2021/04/15 03:28:06;;;;;;;0.10;0.10;;;2.60;99.90;;;;;;4973316;28;20191;-79
2021/04/15 03:30:53;;;;;;;0.37;0.37;;;2.70;99.90;;;;;;4974588;28;20196;-79
2021/04/15 03:33:29;;;;;;;0.10;0.10;;;2.70;99.90;;;;;;4988371;28;20234;-78
2021/04/15 03:36:06;;;;;;;0.20;0.20;;;2.80;99.90;;;;;;4989230;28;20660;-79
2021/04/15 03:38:36;;;;;;;0.10;0.10;;;2.70;99.90;;;;;;4990343;28;20193;-78
2021/04/15 03:41:09;;;;;;;0.10;0.10;;;2.80;99.90;;;;;;4971113;28;20220;-82
2021/04/15 03:43:41;;;;;;;0.10;0.10;;;2.80;99.90;;;;;;4973739;28;20210;-83
2021/04/15 03:46:21;;;;;;;0.10;0.10;;;2.70;99.90;;;;;;4972706;28;20182;-79
2021/04/15 03:48:53;;;;;;;0.10;0.10;;;2.60;99.90;;;;;;4977393;28;20210;-79
2021/04/15 03:51:26;;;;;;;0.10;0.10;;;2.60;99.90;;;;;;4980423;28;20185;-80
2021/04/15 03:54:03;;;;;;;0.10;0.10;;;2.50;99.90;;;;;;4987495;28;20584;-80
2021/04/15 03:56:33;;;;;;;0.47;0.20;;;2.50;99.90;;;;;;4973887;28;20194;-80
2021/04/15 03:59:44;;;;;;;0.20;0.20;;;2.40;99.90;;;;;;4994683;28;20191;-80
2021/04/15 04:02:16;;;;;;;0.07;0.07;;;2.40;99.90;;;;;;4966340;28;20226;-80
2021/04/15 04:04:49;;;;;;;0.10;0.10;;;2.30;99.90;;;;;;4967727;28;20932;-80
2021/04/15 04:07:42;;;;;;;0.30;0.30;;;2.40;99.90;;;;;;4965993;28;20274;-80
2021/04/15 04:10:37;;;;;;;0.13;0.13;;;2.40;99.90;;;;;;4996438;28;20239;-80
2021/04/15 04:13:30;;;;;;;0.10;0.10;;;2.40;99.90;;;;;;4984996;28;20600;-79
2021/04/15 04:16:15;;;;;;;0.20;0.20;;;2.50;99.90;;;;;;5003770;28;20210;-80
2021/04/15 04:18:53;;;;;;;0.10;0.10;;;2.50;99.90;;;;;;4967027;28;20205;-80
2021/04/15 04:21:25;;;;;;;0.10;0.10;;;2.50;99.90;;;;;;4973472;28;20239;-80
2021/04/15 04:23:56;;;;;;;0.20;0.20;;;2.50;99.90;;;;;;4991834;28;20708;-80
2021/04/15 04:26:37;;;;;;;0.00;0.00;;;2.50;99.90;;;;;;4992604;28;20186;-80
2021/04/15 04:29:35;;;;;;;0.00;0.00;;;2.60;99.90;;;;;;4973644;28;20189;-80
2021/04/15 04:32:04;;;;;;;0.30;0.20;;;2.70;99.90;;;;;;4969572;28;20193;-80
2021/04/15 04:34:32;;;;;;;0.30;0.20;;;2.70;99.90;;;;;;4991747;28;20311;-80
2021/04/15 04:36:58;;;;;;;0.57;0.20;;;2.70;99.90;;;;;;4980468;28;20276;-80
2021/04/15 04:39:27;;;;;;;0.10;0.10;;;2.60;99.90;;;;;;4977070;28;20384;-80
2021/04/15 04:42:03;;;;;;;0.10;0.10;;;2.60;99.90;;;;;;4977022;28;20245;-80
2021/04/15 04:44:42;;;;;;;0.17;0.17;;;2.70;99.90;;;;;;4993740;28;20187;-80
2021/04/15 04:47:30;;;;;;;0.13;0.13;;;2.70;99.90;;;;;;4990696;28;20654;-80
2021/04/15 04:50:04;;;;;;;0.40;0.33;;;2.80;99.90;;;;;;4980408;28;20197;-78
2021/04/15 04:52:31;;;;;;;0.10;0.10;;;2.90;99.90;;;;;;4992652;28;20218;-80
2021/04/15 04:54:58;;;;;;;0.20;0.20;;;2.90;99.90;;;;;;4974473;28;20187;-80
2021/04/15 04:57:38;;;;;;;0.20;0.20;;;2.90;99.90;;;;;;4976797;28;20193;-80
2021/04/15 05:00:11;;;;;;;1.13;0.50;;;3.00;99.90;;;;;;4975238;28;20218;-80
2021/04/15 05:02:37;;;;;;;0.13;0.13;;;3.00;99.90;;;;;;4990587;28;20224;-80
2021/04/15 05:05:14;;;;;;;1.60;0.30;;;3.20;99.90;;;;;;4975497;28;20225;-80
2021/04/15 05:07:42;;;;;;;0.10;0.10;;;3.20;99.90;;;;;;4993736;28;20685;-80
2021/04/15 05:10:13;;;;;;;0.10;0.10;;;3.20;99.90;;;;;;4975422;28;20195;-80
2021/04/15 05:12:39;;;;;;;0.27;0.27;;;3.30;99.90;;;;;;4979264;28;20212;-80
2021/04/15 05:15:06;;;;;;;0.20;0.20;;;3.30;99.90;;;;;;4976627;28;20762;-82
2021/04/15 05:17:35;;;;;;;0.33;0.30;;;3.50;99.90;;;;;;4975048;28;20200;-82
2021/04/15 05:20:24;;;;;;;0.20;0.20;;;3.50;99.90;;;;;;4976550;28;20828;-81
2021/04/15 05:23:03;;;;;;;0.43;0.43;;;3.60;99.90;;;;;;4974269;28;20220;-82
2021/04/15 05:25:39;;;;;;;0.30;0.30;;;3.70;99.90;;;;;;4992760;28;20224;-80
2021/04/15 05:28:15;;;;;;;0.30;0.20;;;3.70;99.90;;;;;;4988907;28;20681;-79
2021/04/15 05:30:45;;;;;;;0.07;0.07;;;3.80;99.90;;;;;;4975964;28;20197;-83
2021/04/15 05:33:17;;;;;;;0.37;0.30;;;3.80;99.90;;;;;;4990420;28;20590;-80
2021/04/15 05:35:54;;;;;;;0.30;0.30;;;3.90;99.90;;;;;;4992532;28;20187;-80
2021/04/15 05:38:20;;;;;;;0.20;0.20;;;3.90;99.90;;;;;;4975643;28;20204;-80
2021/04/15 05:40:50;;;;;;;0.20;0.20;;;4.00;99.90;;;;;;4974234;28;20220;-80
2021/04/15 05:43:29;;;;;;;0.67;0.37;;;4.10;99.90;;;;;;4992134;28;20208;-79
2021/04/15 05:46:04;;;;;;;0.47;0.43;;;4.20;99.90;;;;;;4976376;28;20189;-80
2021/04/15 05:48:31;;;;;;;0.43;0.43;;;4.20;99.90;;;;;;4992438;28;20193;-83
2021/04/15 05:50:59;;;;;;;0.20;0.20;;;4.30;99.90;;;;;;4987281;28;20187;-82
2021/04/15 05:53:40;;;;;;;0.10;0.10;;;4.10;99.90;;;;;;4986533;28;20261;-82
2021/04/15 05:56:32;;;;;;;0.10;0.10;;;4.40;99.90;;;;;;4989186;28;20705;-81
2021/04/15 05:59:03;;;;;;;0.00;0.00;;;4.60;99.90;;;;;;4974073;28;20188;-80
2021/04/15 06:01:44;;;;;;;0.87;0.23;;;4.60;99.90;;;;;;4994681;28;20216;-82
2021/04/15 06:04:33;;;;;;;0.30;0.30;;;4.50;99.90;;;;;;4971556;28;20193;-80
2021/04/15 06:07:03;;;;;;;0.17;0.17;;;4.60;99.90;;;;;;4974598;28;20180;-81
2021/04/15 06:09:29;;;;;;;0.93;0.17;;;4.70;99.90;;;;;;4968442;28;20267;-81
2021/04/15 06:12:10;;;;;;;0.27;0.20;;;4.50;99.90;;;;;;4971600;28;20282;-81
2021/04/15 06:15:14;;;;;;;0.30;0.30;;;4.70;99.90;;;;;;4972737;28;20191;-79
2021/04/15 06:17:54;;;;;;;0.10;0.10;;;5.00;99.90;;;;;;4990283;28;22093;-82
2021/04/15 06:20:25;;;;;;;0.20;0.20;;;5.20;99.90;;;;;;4986478;28;20210;-80
2021/04/15 06:22:53;;;;;;;0.33;0.23;;;5.40;99.90;;;;;;4993813;28;20206;-79
2021/04/15 06:25:25;;;;;;;0.10;0.10;;;5.50;99.90;;;;;;4972764;28;20186;-80
2021/04/15 06:27:50;;;;;;;0.03;0.03;;;5.10;99.90;;;;;;4973064;28;20690;-80
2021/04/15 06:30:22;;;;;;;1.00;0.73;;;5.10;99.90;;;;;;4987312;28;20218;-81
2021/04/15 06:33:10;;;;;;;0.50;0.47;;;5.20;99.90;;;;;;4991406;28;20740;-80
2021/04/15 06:35:36;;;;;;;0.53;0.53;;;5.50;99.90;;;;;;4988469;28;20208;-79
2021/04/15 06:38:17;;;;;;;1.90;0.40;;;5.50;99.90;;;;;;4989070;28;20203;-80
2021/04/15 06:41:20;;;;;;;1.00;0.97;;;5.70;99.90;;;;;;4973124;28;20193;-81
2021/04/15 06:44:18;;;;;;;0.20;0.20;;;5.80;99.90;;;;;;4989441;28;20212;-81
2021/04/15 06:47:04;;;;;;;0.20;0.20;;;5.80;99.90;;;;;;4989043;28;20181;-79
2021/04/15 06:49:51;;;;;;;0.27;0.27;;;6.00;99.90;;;;;;4985172;28;20215;-81
2021/04/15 06:52:22;;;;;;;0.10;0.10;;;6.00;99.90;;;;;;4982642;28;20282;-81
2021/04/15 06:55:14;;;;;;;0.03;0.03;;;6.00;99.90;;;;;;4991322;28;20203;-81
2021/04/15 06:57:45;;;;;;;0.10;0.10;;;5.80;99.90;;;;;;4975889;28;20225;-79
2021/04/15 07:00:29;;;;;;;0.00;0.00;;;6.10;99.90;;;;;;4969454;28;20306;-80
2021/04/15 07:03:06;;;;;;;0.20;0.20;;;6.60;99.90;;;;;;4989213;28;20595;-81
2021/04/15 07:05:44;;;;;;;0.47;0.47;;;7.00;99.90;;;;;;4972221;28;20176;-81
2021/04/15 07:08:38;;;;;;;0.10;0.10;;;7.20;99.90;;;;;;4974311;28;20190;-81
2021/04/15 07:11:41;;;;;;;0.17;0.17;;;7.30;99.90;;;;;;4972651;28;20275;-79
2021/04/15 07:14:45;;;;;;;0.10;0.10;;;7.20;99.90;;;;;;4986322;28;20199;-80
2021/04/15 07:17:33;;;;;;;0.50;0.50;;;7.50;99.90;;;;;;4963527;28;20667;-79
2021/04/15 07:20:14;;;;;;;0.60;0.60;;;7.50;99.90;;;;;;4976479;28;20214;-81
2021/04/15 07:23:02;;;;;;;0.17;0.17;;;6.80;99.90;;;;;;4973564;28;20292;-80
2021/04/15 07:25:46;;;;;;;0.43;0.43;;;7.10;99.90;;;;;;4973231;28;20180;-80
2021/04/15 07:28:39;;;;;;;0.40;0.40;;;7.20;99.90;;;;;;4970517;28;20184;-80
2021/04/15 07:31:39;;;;;;;0.37;0.37;;;7.10;99.90;;;;;;4972527;28;20215;-80
2021/04/15 07:34:41;;;;;;;0.37;0.37;;;6.90;99.90;;;;;;4988338;28;20207;-81
2021/04/15 07:37:34;;;;;;;1.03;0.30;;;7.30;99.90;;;;;;4971397;28;20266;-80
2021/04/15 07:40:15;;;;;;;0.40;0.40;;;7.30;99.90;;;;;;4981553;28;20203;-80
2021/04/15 07:42:50;;;;;;;0.20;0.20;;;7.40;99.90;;;;;;4969325;28;20203;-83
2021/04/15 07:45:29;;;;;;;0.30;0.30;;;8.00;99.90;;;;;;4989309;28;20175;-82
2021/04/15 07:48:13;;;;;;;0.40;0.40;;;7.50;99.90;;;;;;4988159;28;20245;-81
2021/04/15 07:51:09;;;;;;;0.40;0.30;;;7.70;99.90;;;;;;4975352;28;20233;-83
2021/04/15 07:54:02;;;;;;;0.23;0.23;;;7.80;99.90;;;;;;4997421;28;20211;-82
2021/04/15 07:56:54;;;;;;;0.20;0.20;;;8.00;99.90;;;;;;4991735;28;20280;-82
2021/04/15 07:59:40;;;;;;;0.50;0.50;;;8.30;99.90;;;;;;4992868;28;20188;-82
2021/04/15 08:02:49;;;;;;;0.20;0.20;;;8.10;99.90;;;;;;4991584;28;20231;-82
2021/04/15 08:05:51;;;;;;;0.93;0.50;;;8.30;99.90;;;;;;4989957;28;20193;-83
2021/04/15 08:08:35;;;;;;;0.77;0.53;;;8.10;99.90;;;;;;4987350;28;20214;-82
2021/04/15 08:11:31;;;;;;;0.20;0.20;;;8.10;99.90;;;;;;4981112;28;20218;-83
2021/04/15 08:14:02;;;;;;;0.17;0.17;;;8.80;99.90;;;;;;4992606;28;20204;-82
2021/04/15 08:17:03;;;;;;;0.40;0.27;;;9.20;99.90;;;;;;4972792;28;20187;-83
2021/04/15 08:19:43;;;;;;;0.33;0.33;;;9.00;99.90;;;;;;4939745;28;20190;-82
2021/04/15 08:22:40;;;;;;;0.10;0.10;;;8.30;99.90;;;;;;4980837;28;20554;-83
2021/04/15 08:25:30;;;;;;;0.17;0.17;;;8.30;99.90;;;;;;4981969;28;20188;-82
2021/04/15 08:28:22;;;;;;;0.20;0.20;;;8.90;99.90;;;;;;4950475;28;20196;-83
2021/04/15 08:31:16;;;;;;;0.40;0.40;;;8.70;99.90;;;;;;4974114;28;20200;-83
2021/04/15 08:40:57;;;;;;;0.30;0.30;;;8.30;99.90;;;;;;4986174;28;20242;-84
2021/04/15 08:43:51;;;;;;;0.10;0.10;;;8.20;99.90;;;;;;4966957;28;20215;-83
2021/04/15 08:46:24;;;;;;;0.10;0.10;;;8.40;99.90;;;;;;4977846;28;20208;-84
2021/04/15 08:49:18;;;;;;;0.10;0.10;;;7.90;99.90;;;;;;4979892;28;20195;-83
2021/04/15 08:52:03;;;;;;;1.33;0.40;;;8.40;99.90;;;;;;4971491;28;20288;-83
2021/04/15 08:54:50;;;;;;;0.63;0.30;;;8.90;99.90;;;;;;4990653;28;20243;-84
2021/04/15 08:57:40;;;;;;;0.20;0.20;;;9.00;99.90;;;;;;4994920;28;20653;-84
2021/04/15 09:00:08;;;;;;;0.40;0.20;;;9.00;99.90;;;;;;4967678;28;20300;-84
2021/04/15 09:02:49;;;;;;;0.10;0.10;;;8.90;99.90;;;;;;4976350;28;20368;-82
2021/04/15 09:05:55;;;;;;;0.27;0.27;;;7.90;99.90;;;;;;4997994;28;20245;-81
2021/04/15 09:08:33;;;;;;;0.30;0.30;;;7.50;99.90;;;;;;4990415;28;20184;-82
2021/04/15 09:11:29;;;;;;;0.23;0.23;;;7.40;99.90;;;;;;4978403;28;20219;-83
2021/04/15 09:14:15;;;;;;;4.90;0.63;;;7.40;99.90;;;;;;4952520;28;20587;-83
2021/04/15 09:16:41;;;;;;;7.83;0.27;;;7.50;99.90;;;;;;4978098;28;20192;-83
2021/04/15 09:19:28;;;;;;;0.40;0.40;;;7.40;99.90;;;;;;4977987;28;20188;-82
2021/04/15 09:25:39;;;;;;;0.10;0.10;;;7.70;99.90;;;;;;4994873;28;20195;-82
2021/04/15 09:28:26;;;;;;;0.17;0.17;;;7.60;99.90;;;;;;4994758;28;20211;-82
2021/04/15 09:31:28;;;;;;;0.50;0.37;;;7.60;99.90;;;;;;4977926;28;20204;-82
2021/04/15 09:34:18;;;;;;;0.10;0.10;;;7.30;99.90;;;;;;4991710;28;20219;-81
2021/04/15 09:37:35;;;;;;;0.40;0.40;;;7.40;99.90;;;;;;4974938;28;20199;-84
2021/04/15 09:40:19;;;;;;;0.10;0.10;;;7.50;99.90;;;;;;4968495;28;20243;-82
2021/04/15 09:43:15;;;;;;;0.20;0.20;;;7.60;99.90;;;;;;4976183;28;20219;-82
2021/04/15 09:46:12;;;;;;;0.77;0.30;;;7.70;99.90;;;;;;4983842;28;20240;-82
2021/04/15 09:49:05;;;;;;;0.30;0.30;;;8.30;99.90;;;;;;4994846;28;20247;-83
2021/04/15 09:51:40;;;;;;;0.10;0.10;;;8.60;99.90;;;;;;4987612;28;20193;-81
2021/04/15 09:54:30;;;;;;;0.13;0.13;;;8.90;99.90;;;;;;4993693;28;20234;-83
2021/04/15 09:57:19;;;;;;;0.10;0.10;;;9.50;99.90;;;;;;4979838;28;20253;-83
2021/04/15 10:00:03;;;;;;;0.10;0.10;;;9.70;99.90;;;;;;4980150;28;20210;-82
2021/04/15 10:02:39;;;;;;;0.50;0.50;;;9.40;99.90;;;;;;4979266;28;20257;-82
2021/04/15 10:05:14;;;;;;;0.20;0.20;;;9.70;99.90;;;;;;4978697;28;20287;-82
2021/04/15 10:07:52;;;;;;;0.50;0.30;;;9.90;99.90;;;;;;4983389;28;20198;-83
2021/04/15 10:10:34;;;;;;;0.30;0.30;;;9.60;99.90;;;;;;4978787;28;20189;-83
2021/04/15 10:13:36;;;;;;;0.10;0.10;;;8.90;99.90;;;;;;4976710;28;20203;-83
2021/04/15 10:16:43;;;;;;;0.20;0.20;;;8.50;99.90;;;;;;4982231;28;20173;-82
2021/04/15 10:19:47;;;;;;;0.10;0.10;;;8.70;99.90;;;;;;4957023;28;20208;-83
2021/04/15 10:22:41;;;;;;;0.20;0.20;;;8.40;99.90;;;;;;4979732;28;20210;-83
2021/04/15 10:25:15;;;;;;;0.30;0.30;;;8.20;99.90;;;;;;4981687;28;20185;-83
2021/04/15 10:28:13;;;;;;;0.27;0.27;;;8.30;99.90;;;;;;4977335;28;20192;-83
2021/04/15 10:31:06;;;;;;;0.87;0.20;;;8.30;99.90;;;;;;4994109;28;20191;-83
2021/04/15 10:33:51;;;;;;;0.43;0.33;;;8.30;99.90;;;;;;4956596;28;20216;-82
2021/04/15 10:36:47;;;;;;;0.10;0.10;;;7.80;99.90;;;;;;4976610;28;20207;-82
2021/04/15 10:40:03;;;;;;;0.30;0.30;;;8.10;99.90;;;;;;4976594;28;20274;-83
2021/04/15 10:42:54;;;;;;;0.50;0.20;;;7.90;99.90;;;;;;4989256;28;20213;-84
2021/04/15 10:45:28;;;;;;;0.10;0.10;;;8.10;99.90;;;;;;4994105;28;20542;-83
2021/04/15 10:48:25;;;;;;;0.10;0.10;;;8.40;99.90;;;;;;4979235;28;20667;-83
2021/04/15 10:50:55;;;;;;;3.60;0.30;;;8.30;99.90;;;;;;4995909;28;20540;-83
2021/04/15 10:53:35;;;;;;;0.10;0.10;;;8.60;99.90;;;;;;4977453;28;20203;-83
2021/04/15 10:56:10;;;;;;;1.23;0.47;;;8.40;99.90;;;;;;4983527;28;20187;-82
2021/04/15 10:58:37;;;;;;;0.40;0.40;;;8.30;99.90;;;;;;4977516;28;20250;-83
2021/04/15 11:01:59;;;;;;;0.37;0.37;;;8.10;99.90;;;;;;4976503;28;20263;-83
2021/04/15 11:04:29;;;;;;;1.07;0.67;;;8.10;99.90;;;;;;4967429;28;20208;-83
2021/04/15 11:07:05;;;;;;;0.10;0.10;;;8.30;99.90;;;;;;4993555;28;20183;-83
2021/04/15 11:09:33;;;;;;;0.20;0.20;;;8.50;99.90;;;;;;4994553;28;20192;-83
2021/04/15 11:12:14;;;;;;;0.43;0.43;;;8.80;99.90;;;;;;4990790;28;20183;-83
2021/04/15 11:14:56;;;;;;;0.50;0.43;;;8.70;99.90;;;;;;4981231;28;20207;-83
2021/04/15 11:17:23;;;;;;;0.30;0.23;;;8.80;99.90;;;;;;4994033;28;20188;-83
2021/04/15 11:19:58;;;;;;;0.20;0.10;;;8.90;99.90;;;;;;4976372;28;20207;-83
2021/04/15 11:22:33;;;;;;;0.07;0.07;;;8.90;99.90;;;;;;4983973;28;20200;-83
2021/04/15 11:25:14;;;;;;;0.10;0.10;;;9.30;99.90;;;;;;4967733;28;20195;-83
2021/04/15 11:27:43;;;;;;;0.40;0.33;;;9.50;99.90;;;;;;4975821;28;20196;-82
2021/04/15 11:30:28;;;;;;;0.10;0.10;;;9.40;99.90;;;;;;4993825;28;20332;-82
2021/04/15 11:32:54;;;;;;;0.10;0.10;;;9.80;99.90;;;;;;4973753;28;20266;-83
2021/04/15 11:35:22;;;;;;;0.20;0.20;;;9.60;99.90;;;;;;4993183;28;22010;-82
2021/04/15 11:37:51;;;;;;;0.50;0.23;;;9.80;99.90;;;;;;4989258;28;20207;-85
2021/04/15 11:40:43;;;;;;;0.10;0.10;;;10.00;99.90;;;;;;4991937;28;20209;-85
2021/04/15 11:43:25;;;;;;;0.10;0.10;;;10.10;99.90;;;;;;4975029;28;20264;-85
2021/04/15 11:45:53;;;;;;;0.10;0.10;;;10.10;99.90;;;;;;4975629;28;20191;-85
2021/04/15 11:48:29;;;;;;;0.10;0.10;;;10.30;99.90;;;;;;4975685;28;20189;-85
2021/04/15 11:51:13;;;;;;;3.60;0.53;;;10.80;99.90;;;;;;4975607;28;20202;-85
2021/04/15 11:53:53;;;;;;;0.93;0.40;;;11.00;99.90;;;;;;4975682;28;20230;-85
2021/04/15 11:56:38;;;;;;;0.10;0.10;;;10.40;99.90;;;;;;4975292;28;20183;-86
2021/04/15 11:59:15;;;;;;;0.40;0.40;;;10.90;99.90;;;;;;4975387;28;20193;-82
2021/04/15 12:01:40;;;;;;;0.83;0.50;;;10.70;99.90;;;;;;4992595;28;20240;-82
2021/04/15 12:04:07;;;;;;;0.10;0.10;;;10.80;99.90;;;;;;4972816;28;20250;-82
2021/04/15 12:06:42;;;;;;;0.10;0.10;;;10.70;99.90;;;;;;4975870;28;20844;-82
2021/04/15 12:09:12;;;;;;;5.83;0.73;;;10.90;99.90;;;;;;4993069;28;20194;-82
2021/04/15 12:11:55;;;;;;;0.10;0.10;;;10.10;99.90;;;;;;4999722;28;20191;-82
2021/04/15 12:14:22;;;;;;;1.23;0.80;;;10.10;99.90;;;;;;4976304;28;20273;-82
2021/04/15 12:16:57;;;;;;;0.77;0.77;;;9.60;99.90;;;;;;4975593;28;20198;-81
2021/04/15 12:19:45;;;;;;;0.30;0.30;;;9.40;99.90;;;;;;4995356;28;20189;-82
2021/04/15 12:22:29;;;;;;;0.37;0.37;;;9.40;99.90;;;;;;4986744;28;20209;-81
2021/04/15 12:25:06;;;;;;;0.10;0.10;;;8.90;99.90;;;;;;4979117;28;20189;-83
2021/04/15 12:27:56;;;;;;;0.30;0.20;;;9.10;99.90;;;;;;4997709;28;20217;-82
2021/04/15 12:30:28;;;;;;;0.40;0.40;;;9.30;99.90;;;;;;4972364;28;20213;-82
2021/04/15 12:33:03;;;;;;;0.30;0.30;;;9.30;99.90;;;;;;4996264;28;20694;-82
2021/04/15 12:35:43;;;;;;;0.20;0.20;;;9.40;99.90;;;;;;4979433;28;20746;-82
2021/04/15 12:38:33;;;;;;;0.10;0.10;;;9.60;99.90;;;;;;4968535;28;20193;-82
2021/04/15 12:41:07;;;;;;;0.13;0.13;;;10.30;99.90;;;;;;4993750;28;20210;-81
2021/04/15 12:43:52;;;;;;;0.20;0.20;;;10.90;99.90;;;;;;4978697;28;20245;-83
2021/04/15 12:46:26;;;;;;;0.50;0.33;;;10.90;99.90;;;;;;4979186;28;20285;-81
2021/04/15 12:48:56;;;;;;;1.30;0.37;;;11.10;99.90;;;;;;4978528;28;20205;-82
2021/04/15 12:51:29;;;;;;;0.23;0.23;;;11.30;99.90;;;;;;4995399;28;20178;-82
2021/04/15 12:54:00;;;;;;;0.20;0.20;;;11.30;99.90;;;;;;4978539;28;20722;-82
2021/04/15 12:56:41;;;;;;;0.10;0.10;;;10.80;99.90;;;;;;4994684;28;20187;-82
2021/04/15 12:59:09;;;;;;;0.30;0.30;;;10.20;99.90;;;;;;4965756;28;20575;-82
2021/04/15 13:01:38;;;;;;;1.83;1.03;;;10.00;99.90;;;;;;4977257;28;20713;-82
2021/04/15 13:04:35;;;;;;;0.20;0.20;;;10.00;99.90;;;;;;4995509;28;20222;-82
2021/04/15 13:07:14;;;;;;;0.50;0.50;;;10.70;99.90;;;;;;4983819;28;20593;-81
2021/04/15 13:09:45;;;;;;;0.10;0.10;;;11.30;99.90;;;;;;4977793;28;20190;-82
2021/04/15 13:12:20;;;;;;;0.50;0.50;;;11.10;99.90;;;;;;5001550;28;20770;-82
2021/04/15 13:14:48;;;;;;;1.07;0.70;;;11.40;99.90;;;;;;4965615;28;20711;-83
2021/04/15 13:17:36;;;;;;;0.47;0.20;;;11.50;99.90;;;;;;4989756;28;20614;-81
2021/04/15 13:20:07;;;;;;;0.10;0.10;;;11.20;99.90;;;;;;4971033;28;20216;-81
2021/04/15 13:22:39;;;;;;;0.10;0.10;;;10.50;99.90;;;;;;4985757;28;20214;-82
2021/04/15 13:25:11;;;;;;;0.53;0.53;;;10.50;99.90;;;;;;4978300;28;20565;-83
2021/04/15 13:27:44;;;;;;;0.10;0.10;;;10.10;99.90;;;;;;4989024;28;20187;-83
2021/04/15 13:30:34;;;;;;;0.10;0.10;;;10.00;99.90;;;;;;4994358;28;20188;-82
2021/04/15 13:35:56;;;;;;;0.10;0.10;;;9.00;99.90;;;;;;4994856;28;20643;-82
2021/04/15 13:38:45;;;;;;;0.10;0.10;;;8.70;99.90;;;;;;4992633;28;20181;-81
2021/04/15 13:41:28;;;;;;;0.20;0.20;;;8.70;99.90;;;;;;4976350;28;20294;-83
2021/04/15 13:44:10;;;;;;;0.10;0.10;;;8.70;99.90;;;;;;4977178;28;20214;-83
2021/04/15 13:46:46;;;;;;;0.10;0.10;;;8.70;99.90;;;;;;4977474;28;20190;-82
2021/04/15 13:49:12;;;;;;;0.10;0.10;;;8.90;99.90;;;;;;4994115;28;20211;-83
2021/04/15 13:52:03;;;;;;;0.30;0.30;;;8.90;99.90;;;;;;4993847;28;20185;-82
2021/04/15 13:54:39;;;;;;;0.20;0.20;;;9.60;99.90;;;;;;4989797;28;20223;-83
2021/04/15 13:57:11;;;;;;;0.30;0.27;;;10.30;99.90;;;;;;4984356;28;20190;-84
2021/04/15 13:59:51;;;;;;;0.10;0.10;;;10.00;99.90;;;;;;4976752;28;20838;-82
2021/04/15 14:02:17;;;;;;;0.40;0.40;;;10.90;99.90;;;;;;4989408;28;20225;-82
2021/04/15 14:04:42;;;;;;;1.30;0.30;;;11.50;99.90;;;;;;4988546;28;20180;-83
2021/04/15 14:07:44;;;;;;;0.10;0.10;;;11.70;99.90;;;;;;4976925;28;20190;-82
2021/04/15 14:10:36;;;;;;;0.30;0.30;;;12.30;99.90;;;;;;4991715;28;20215;-83